< < Back
Terminal Aerodrome Forecast


Current Version              Previous Versions:   1  2  3  4  5  6  7  8  9  

Terminal Aerodrome Forecast

184
FTUS42 KMLB 261100
TAFMCO
TAF
KMCO 261125Z 2612/2712 22010KT P6SM VCSH FEW025 SCT035 BKN040
     FM261400 26015G22KT P6SM SCT030 BKN050 BKN120
     FM261600 28020G28KT P6SM FEW030 SCT050 SCT120
     FM270000 28016G23KT P6SM SKC=



Latest METAR

162
SAUS70 KWBC 261600 RRF
MTRMCO
METAR KMCO 261553Z 30019KT 10SM FEW030 17/07 A2990 RMK AO2 SLP125
T01720072


USA.gov is the U.S. government's official web portal to all federal, state and local government web resources and services.